EWG1GM EDDH-ESNQ
Flight info
| Callsign | EWG1GM |
|---|---|
| Flight time | N/A |
| Altitude | 35000 |
| Route | SOKWO1G SOKWO T814 EXNEL M105 AMRAK DCT TESPI DCT GOTEX Z731 MAKUR DCT LATKU DCT TEKVA DCT LOMLA DCT GOKEP DCT OSLAV DCT ETIPU DCT IBNIC DCT ITVAV DCT VAGAS |
| Aircraft | A320/M-SDE3FGHIRWY/LB1 |
Departure
| Time | 2026-05-06 15:46 |
|---|---|
| Airport | Hamburg Helmut Schmidt Airport (EDDH) |
Arrival
| Time | N/A |
|---|---|
| Airport | Kiruna Airport (ESNQ) |
| Time | Latitude | Longitude | Altitude | Speed | Heading |
|---|---|---|---|---|---|
| 2026-05-06 14:52 | 53.63190 | 9.99920 | 49 ft | 0 kts | 320° |
| 2026-05-06 15:32 | 53.63190 | 9.99921 | 48 ft | 1 kts | 320° |
| 2026-05-06 15:32 | 53.63172 | 9.99946 | 45 ft | 4 kts | 320° |
| 2026-05-06 15:32 | 53.63157 | 9.99969 | 44 ft | 4 kts | 281° |
| 2026-05-06 15:33 | 53.63164 | 10.00003 | 45 ft | 3 kts | 230° |
| 2026-05-06 15:33 | 53.63176 | 10.00027 | 47 ft | 0 kts | 230° |
| 2026-05-06 15:36 | 53.63174 | 10.00023 | 46 ft | 3 kts | 230° |
| 2026-05-06 15:36 | 53.63153 | 9.99981 | 44 ft | 7 kts | 230° |
| 2026-05-06 15:37 | 53.63126 | 9.99928 | 47 ft | 5 kts | 230° |
| 2026-05-06 15:37 | 53.63106 | 9.99889 | 48 ft | 4 kts | 221° |
| 2026-05-06 15:37 | 53.63072 | 9.99890 | 48 ft | 7 kts | 158° |
| 2026-05-06 15:37 | 53.63033 | 9.99924 | 48 ft | 6 kts | 152° |
| 2026-05-06 15:38 | 53.63003 | 9.99951 | 48 ft | 4 kts | 152° |
| 2026-05-06 15:38 | 53.62980 | 9.99972 | 48 ft | 3 kts | 152° |
| 2026-05-06 15:38 | 53.62960 | 9.99989 | 48 ft | 3 kts | 152° |
| 2026-05-06 15:38 | 53.62943 | 10.00004 | 48 ft | 2 kts | 152° |
| 2026-05-06 15:39 | 53.62913 | 9.99966 | 47 ft | 8 kts | 266° |
| 2026-05-06 15:39 | 53.62904 | 9.99936 | 48 ft | 1 kts | 239° |
| 2026-05-06 15:39 | 53.62900 | 9.99925 | 48 ft | 1 kts | 241° |
| 2026-05-06 15:39 | 53.62900 | 9.99923 | 48 ft | 0 kts | 241° |
| 2026-05-06 15:43 | 53.62894 | 9.99907 | 47 ft | 5 kts | 241° |
| 2026-05-06 15:44 | 53.62872 | 9.99838 | 45 ft | 7 kts | 241° |
| 2026-05-06 15:44 | 53.62859 | 9.99766 | 45 ft | 5 kts | 290° |
| 2026-05-06 15:44 | 53.62881 | 9.99735 | 45 ft | 3 kts | 334° |
| 2026-05-06 15:44 | 53.62898 | 9.99720 | 45 ft | 2 kts | 332° |
| 2026-05-06 15:45 | 53.62924 | 9.99697 | 45 ft | 13 kts | 332° |
| 2026-05-06 15:45 | 53.63252 | 9.99418 | 47 ft | 96 kts | 332° |
| 2026-05-06 15:45 | 53.64072 | 9.98707 | 51 ft | 164 kts | 333° |
| 2026-05-06 15:45 | 53.65182 | 9.97770 | 637 ft | 184 kts | 336° |
| 2026-05-06 15:46 | 53.66321 | 9.96805 | 1773 ft | 181 kts | 338° |
| 2026-05-06 15:46 | 53.67448 | 9.95836 | 2659 ft | 185 kts | 339° |
| 2026-05-06 15:46 | 53.68663 | 9.94878 | 2998 ft | 201 kts | 349° |
| 2026-05-06 15:46 | 53.70082 | 9.94692 | 3517 ft | 208 kts | 5° |
| 2026-05-06 15:47 | 53.71541 | 9.94708 | 4284 ft | 212 kts | 4° |
| 2026-05-06 15:47 | 53.73032 | 9.94768 | 5013 ft | 215 kts | 12° |
| 2026-05-06 15:47 | 53.74442 | 9.95666 | 5557 ft | 226 kts | 34° |
| 2026-05-06 15:47 | 53.75837 | 9.97173 | 5911 ft | 250 kts | 34° |
| 2026-05-06 15:48 | 53.77329 | 9.98821 | 6531 ft | 261 kts | 34° |
| 2026-05-06 15:48 | 53.78862 | 10.00517 | 7338 ft | 265 kts | 34° |
| 2026-05-06 15:48 | 53.80415 | 10.02229 | 8170 ft | 269 kts | 33° |
| 2026-05-06 15:48 | 53.81998 | 10.03971 | 8989 ft | 273 kts | 32° |
| 2026-05-06 15:49 | 53.83607 | 10.05735 | 9788 ft | 278 kts | 32° |
| 2026-05-06 15:49 | 53.85260 | 10.07545 | 10302 ft | 293 kts | 32° |
| 2026-05-06 15:49 | 53.87051 | 10.09470 | 10540 ft | 315 kts | 28° |
| 2026-05-06 15:49 | 53.89137 | 10.10803 | 11032 ft | 326 kts | 11° |
| 2026-05-06 15:50 | 53.91418 | 10.11072 | 11651 ft | 334 kts | 355° |
| 2026-05-06 15:50 | 53.93718 | 10.10309 | 12290 ft | 340 kts | 346° |
| 2026-05-06 15:50 | 53.96035 | 10.09337 | 12955 ft | 346 kts | 345° |
| 2026-05-06 15:50 | 53.98398 | 10.08333 | 13613 ft | 352 kts | 345° |
| 2026-05-06 15:51 | 54.00790 | 10.07310 | 14217 ft | 357 kts | 345° |
| 2026-05-06 15:51 | 54.03211 | 10.06274 | 14834 ft | 361 kts | 345° |
| 2026-05-06 15:51 | 54.05656 | 10.05230 | 15454 ft | 364 kts | 345° |
| 2026-05-06 15:51 | 54.08124 | 10.04149 | 16084 ft | 367 kts | 341° |
| 2026-05-06 15:52 | 54.10482 | 10.02471 | 16704 ft | 369 kts | 329° |
| 2026-05-06 15:52 | 54.12608 | 10.00033 | 17323 ft | 370 kts | 318° |
| 2026-05-06 15:52 | 54.14433 | 9.96934 | 17927 ft | 371 kts | 309° |
| 2026-05-06 15:52 | 54.16165 | 9.93635 | 18474 ft | 375 kts | 309° |
| 2026-05-06 15:53 | 54.17912 | 9.90303 | 19035 ft | 377 kts | 309° |
| 2026-05-06 15:53 | 54.19664 | 9.86956 | 19573 ft | 380 kts | 309° |
| 2026-05-06 15:53 | 54.21432 | 9.83580 | 20132 ft | 382 kts | 309° |
| 2026-05-06 15:53 | 54.23212 | 9.80184 | 20671 ft | 384 kts | 310° |
| 2026-05-06 15:54 | 54.25159 | 9.77027 | 21192 ft | 390 kts | 319° |
| 2026-05-06 15:54 | 54.27357 | 9.74281 | 21705 ft | 393 kts | 321° |
| 2026-05-06 15:54 | 54.29581 | 9.71521 | 22224 ft | 395 kts | 321° |
| 2026-05-06 15:54 | 54.31778 | 9.68774 | 22727 ft | 398 kts | 321° |
| 2026-05-06 15:55 | 54.34136 | 9.66135 | 23222 ft | 403 kts | 330° |
| 2026-05-06 15:55 | 54.36710 | 9.64313 | 23661 ft | 409 kts | 341° |
| 2026-05-06 15:55 | 54.39522 | 9.63371 | 24074 ft | 415 kts | 353° |
| 2026-05-06 15:55 | 54.42464 | 9.63412 | 24467 ft | 421 kts | 5° |
| 2026-05-06 15:56 | 54.45360 | 9.64277 | 24842 ft | 424 kts | 9° |
| 2026-05-06 15:56 | 54.48233 | 9.65223 | 25223 ft | 427 kts | 9° |
| 2026-05-06 15:56 | 54.51160 | 9.66183 | 25592 ft | 430 kts | 9° |
| 2026-05-06 15:56 | 54.54104 | 9.67147 | 25969 ft | 432 kts | 9° |
| 2026-05-06 15:57 | 54.57067 | 9.68101 | 26337 ft | 435 kts | 9° |
| 2026-05-06 15:57 | 54.60050 | 9.69043 | 26690 ft | 437 kts | 9° |
| 2026-05-06 15:57 | 54.63053 | 9.69979 | 27047 ft | 440 kts | 8° |
| 2026-05-06 15:57 | 54.66074 | 9.70911 | 27398 ft | 442 kts | 8° |
| 2026-05-06 15:58 | 54.69116 | 9.71768 | 27748 ft | 445 kts | 7° |
| 2026-05-06 15:58 | 54.72191 | 9.72559 | 28101 ft | 447 kts | 6° |
| 2026-05-06 15:58 | 54.75281 | 9.73312 | 28441 ft | 450 kts | 6° |
| 2026-05-06 15:58 | 54.78392 | 9.74057 | 28771 ft | 453 kts | 6° |
| 2026-05-06 15:59 | 54.81516 | 9.74920 | 29101 ft | 456 kts | 12° |
| 2026-05-06 15:59 | 54.84560 | 9.76510 | 29415 ft | 460 kts | 21° |
| 2026-05-06 15:59 | 54.87532 | 9.78616 | 29714 ft | 463 kts | 22° |
| 2026-05-06 15:59 | 54.90516 | 9.80745 | 30008 ft | 465 kts | 21° |
| 2026-05-06 16:00 | 54.93522 | 9.82891 | 30262 ft | 467 kts | 20° |
| 2026-05-06 16:00 | 54.96578 | 9.85069 | 30512 ft | 470 kts | 21° |
| 2026-05-06 16:00 | 54.99609 | 9.87224 | 30765 ft | 472 kts | 21° |
| 2026-05-06 16:00 | 55.02621 | 9.89362 | 31020 ft | 474 kts | 21° |
| 2026-05-06 16:01 | 55.05678 | 9.91539 | 31294 ft | 475 kts | 21° |
| 2026-05-06 16:01 | 55.08727 | 9.93716 | 31660 ft | 474 kts | 21° |
| 2026-05-06 16:01 | 55.11771 | 9.95896 | 32030 ft | 473 kts | 21° |
| 2026-05-06 16:01 | 55.14809 | 9.98078 | 32392 ft | 472 kts | 21° |
| 2026-05-06 16:02 | 55.17845 | 10.00265 | 32740 ft | 471 kts | 21° |
| 2026-05-06 16:02 | 55.20870 | 10.02447 | 33125 ft | 470 kts | 21° |
| 2026-05-06 16:02 | 55.23893 | 10.04631 | 33477 ft | 469 kts | 21° |
| 2026-05-06 16:02 | 55.26908 | 10.06814 | 33835 ft | 468 kts | 21° |
| 2026-05-06 16:03 | 55.29911 | 10.08994 | 34141 ft | 468 kts | 20° |
| 2026-05-06 16:03 | 55.32919 | 10.11176 | 34381 ft | 468 kts | 20° |
| 2026-05-06 16:03 | 55.35929 | 10.13356 | 34627 ft | 468 kts | 20° |
| 2026-05-06 16:03 | 55.38937 | 10.15540 | 34856 ft | 469 kts | 20° |
| 2026-05-06 16:04 | 55.44929 | 10.19903 | 34953 ft | 463 kts | 20° |
| 2026-05-06 16:04 | 55.50863 | 10.24242 | 34947 ft | 461 kts | 20° |
| 2026-05-06 16:05 | 55.56790 | 10.28585 | 34946 ft | 461 kts | 20° |
| 2026-05-06 16:05 | 55.62724 | 10.32953 | 34945 ft | 462 kts | 20° |
| 2026-05-06 16:06 | 55.68659 | 10.37345 | 34943 ft | 462 kts | 20° |
| 2026-05-06 16:06 | 55.74587 | 10.41746 | 34939 ft | 462 kts | 20° |
| 2026-05-06 16:07 | 55.80521 | 10.46148 | 34935 ft | 462 kts | 20° |
| 2026-05-06 16:07 | 55.86466 | 10.50580 | 34936 ft | 463 kts | 20° |
| 2026-05-06 16:08 | 55.92487 | 10.54571 | 34932 ft | 461 kts | 14° |
| 2026-05-06 16:08 | 55.98618 | 10.57921 | 34935 ft | 461 kts | 14° |
| 2026-05-06 16:09 | 56.04756 | 10.61300 | 34936 ft | 461 kts | 14° |
| 2026-05-06 16:09 | 56.10896 | 10.64698 | 34938 ft | 462 kts | 14° |
| 2026-05-06 16:10 | 56.17036 | 10.68102 | 34941 ft | 462 kts | 14° |
| 2026-05-06 16:10 | 56.22146 | 10.70933 | 34942 ft | 462 kts | 13° |
| 2026-05-06 16:11 | 56.28297 | 10.74350 | 34943 ft | 463 kts | 13° |
| 2026-05-06 16:11 | 56.34453 | 10.77811 | 34946 ft | 463 kts | 14° |
| 2026-05-06 16:12 | 56.40603 | 10.81288 | 34945 ft | 463 kts | 13° |
| 2026-05-06 16:12 | 56.46764 | 10.84759 | 34946 ft | 464 kts | 13° |
| 2026-05-06 16:13 | 56.52922 | 10.88231 | 34943 ft | 464 kts | 13° |
| 2026-05-06 16:13 | 56.59089 | 10.91731 | 34947 ft | 464 kts | 13° |
| 2026-05-06 16:14 | 56.65256 | 10.95244 | 34944 ft | 464 kts | 13° |
| 2026-05-06 16:14 | 56.71425 | 10.98761 | 34947 ft | 465 kts | 13° |
| 2026-05-06 16:15 | 56.77598 | 11.02305 | 34946 ft | 465 kts | 13° |
| 2026-05-06 16:15 | 56.83776 | 11.05862 | 34949 ft | 465 kts | 13° |
| 2026-05-06 16:16 | 56.89955 | 11.09429 | 34950 ft | 466 kts | 13° |
| 2026-05-06 16:16 | 56.96139 | 11.13012 | 34947 ft | 466 kts | 13° |
| 2026-05-06 16:17 | 57.02325 | 11.16610 | 34949 ft | 467 kts | 13° |
| 2026-05-06 16:17 | 57.08520 | 11.20239 | 34950 ft | 467 kts | 13° |
| 2026-05-06 16:18 | 57.14712 | 11.23860 | 34952 ft | 467 kts | 13° |
| 2026-05-06 16:18 | 57.20915 | 11.27502 | 34954 ft | 468 kts | 13° |
| 2026-05-06 16:19 | 57.27111 | 11.31181 | 34962 ft | 468 kts | 13° |
| 2026-05-06 16:19 | 57.33307 | 11.34890 | 34958 ft | 468 kts | 13° |
| 2026-05-06 16:20 | 57.39503 | 11.38605 | 34966 ft | 468 kts | 13° |
| 2026-05-06 16:20 | 57.45712 | 11.42221 | 34964 ft | 467 kts | 11° |
| 2026-05-06 16:21 | 57.51985 | 11.45286 | 34971 ft | 465 kts | 8° |
| 2026-05-06 16:21 | 57.58268 | 11.48151 | 34967 ft | 465 kts | 8° |
| 2026-05-06 16:22 | 57.64507 | 11.51111 | 34972 ft | 466 kts | 9° |
| 2026-05-06 16:22 | 57.70780 | 11.54205 | 34972 ft | 466 kts | 9° |
| 2026-05-06 16:23 | 57.77048 | 11.57322 | 34974 ft | 466 kts | 9° |
| 2026-05-06 16:23 | 57.83319 | 11.60424 | 34972 ft | 466 kts | 9° |
| 2026-05-06 16:24 | 57.89637 | 11.63558 | 34972 ft | 466 kts | 9° |
| 2026-05-06 16:24 | 57.95874 | 11.66655 | 34973 ft | 466 kts | 9° |
| 2026-05-06 16:25 | 58.02190 | 11.69807 | 34973 ft | 467 kts | 9° |
| 2026-05-06 16:25 | 58.08466 | 11.72963 | 34978 ft | 467 kts | 8° |
| 2026-05-06 16:26 | 58.14742 | 11.76115 | 34974 ft | 467 kts | 8° |
| 2026-05-06 16:26 | 58.20981 | 11.79271 | 34975 ft | 467 kts | 8° |
| 2026-05-06 16:27 | 58.27253 | 11.82453 | 34966 ft | 467 kts | 8° |
| 2026-05-06 16:27 | 58.33528 | 11.85642 | 34974 ft | 467 kts | 8° |
| 2026-05-06 16:28 | 58.39807 | 11.88846 | 34971 ft | 467 kts | 8° |
| 2026-05-06 16:28 | 58.46086 | 11.92046 | 34974 ft | 467 kts | 8° |
| 2026-05-06 16:29 | 58.52364 | 11.95273 | 34975 ft | 467 kts | 8° |
| 2026-05-06 16:29 | 58.58637 | 11.98512 | 34974 ft | 467 kts | 8° |
| 2026-05-06 16:30 | 58.63868 | 12.01158 | 34973 ft | 467 kts | 8° |
| 2026-05-06 16:30 | 58.71218 | 12.04848 | 34971 ft | 467 kts | 8° |
| 2026-05-06 16:31 | 58.77499 | 12.08031 | 34971 ft | 467 kts | 8° |
| 2026-05-06 16:31 | 58.83789 | 12.11239 | 34972 ft | 467 kts | 8° |
| 2026-05-06 16:32 | 58.90073 | 12.14449 | 34978 ft | 467 kts | 8° |
| 2026-05-06 16:32 | 58.96354 | 12.17679 | 34974 ft | 467 kts | 8° |
| 2026-05-06 16:33 | 59.02631 | 12.20918 | 34977 ft | 467 kts | 8° |
| 2026-05-06 16:34 | 59.12052 | 12.25801 | 34970 ft | 467 kts | 8° |
| 2026-05-06 16:34 | 59.18329 | 12.29071 | 34968 ft | 467 kts | 8° |
| 2026-05-06 16:35 | 59.24610 | 12.32365 | 34963 ft | 467 kts | 8° |
| 2026-05-06 16:35 | 59.30877 | 12.35658 | 34963 ft | 467 kts | 7° |
| 2026-05-06 16:36 | 59.37149 | 12.38954 | 34959 ft | 466 kts | 7° |
| 2026-05-06 16:36 | 59.43417 | 12.42264 | 34957 ft | 466 kts | 7° |
| 2026-05-06 16:37 | 59.49681 | 12.45584 | 34953 ft | 466 kts | 7° |
| 2026-05-06 16:37 | 59.55947 | 12.48924 | 34952 ft | 466 kts | 7° |
| 2026-05-06 16:38 | 59.62212 | 12.52286 | 34948 ft | 466 kts | 8° |
| 2026-05-06 16:38 | 59.68479 | 12.55659 | 34947 ft | 466 kts | 7° |
| 2026-05-06 16:39 | 59.74741 | 12.59024 | 34947 ft | 466 kts | 7° |
| 2026-05-06 16:39 | 59.81000 | 12.62403 | 34953 ft | 466 kts | 8° |
| 2026-05-06 16:40 | 59.87261 | 12.65799 | 34949 ft | 466 kts | 8° |
| 2026-05-06 16:40 | 59.93514 | 12.69226 | 34949 ft | 466 kts | 8° |
| 2026-05-06 16:41 | 59.99737 | 12.72902 | 34944 ft | 471 kts | 14° |
| 2026-05-06 16:41 | 60.05858 | 12.77581 | 34945 ft | 471 kts | 14° |
| 2026-05-06 16:42 | 60.11937 | 12.82274 | 34952 ft | 471 kts | 14° |
| 2026-05-06 16:42 | 60.18087 | 12.87066 | 34950 ft | 470 kts | 14° |
| 2026-05-06 16:43 | 60.24152 | 12.91790 | 34954 ft | 470 kts | 14° |
| 2026-05-06 16:43 | 60.30260 | 12.96554 | 34949 ft | 470 kts | 14° |
| 2026-05-06 16:44 | 60.36353 | 13.01339 | 34950 ft | 470 kts | 14° |
| 2026-05-06 16:44 | 60.42447 | 13.06140 | 34948 ft | 470 kts | 14° |
| 2026-05-06 16:45 | 60.48539 | 13.10947 | 34947 ft | 470 kts | 15° |
| 2026-05-06 16:45 | 60.54633 | 13.15785 | 34948 ft | 470 kts | 15° |
| 2026-05-06 16:46 | 60.60715 | 13.20764 | 34942 ft | 472 kts | 17° |
| 2026-05-06 16:46 | 60.66681 | 13.26503 | 34939 ft | 476 kts | 21° |
| 2026-05-06 16:47 | 60.72587 | 13.32660 | 34947 ft | 476 kts | 21° |
| 2026-05-06 16:47 | 60.78504 | 13.38747 | 34935 ft | 476 kts | 20° |
| 2026-05-06 16:48 | 60.84442 | 13.44707 | 34939 ft | 475 kts | 20° |
| 2026-05-06 16:48 | 60.90389 | 13.50668 | 34942 ft | 476 kts | 20° |
| 2026-05-06 16:49 | 60.96332 | 13.56671 | 34943 ft | 476 kts | 20° |
| 2026-05-06 16:49 | 61.02267 | 13.62714 | 34944 ft | 476 kts | 20° |
| 2026-05-06 16:50 | 61.08193 | 13.68778 | 34945 ft | 476 kts | 21° |
| 2026-05-06 16:50 | 61.13120 | 13.73834 | 34950 ft | 476 kts | 21° |
| 2026-05-06 16:51 | 61.19047 | 13.79933 | 34955 ft | 475 kts | 21° |
| 2026-05-06 16:51 | 61.24976 | 13.86064 | 34952 ft | 475 kts | 21° |
| 2026-05-06 16:52 | 61.30889 | 13.92213 | 34964 ft | 475 kts | 21° |
| 2026-05-06 16:52 | 61.36800 | 13.98382 | 34968 ft | 475 kts | 21° |
| 2026-05-06 16:53 | 61.42708 | 14.04568 | 34958 ft | 475 kts | 21° |
| 2026-05-06 16:53 | 61.48608 | 14.10771 | 34957 ft | 474 kts | 21° |
| 2026-05-06 16:54 | 61.54504 | 14.17009 | 34958 ft | 474 kts | 21° |
| 2026-05-06 16:54 | 61.60388 | 14.23256 | 34958 ft | 474 kts | 21° |
| 2026-05-06 16:55 | 61.66272 | 14.29533 | 34966 ft | 474 kts | 22° |
| 2026-05-06 16:55 | 61.72155 | 14.35828 | 34965 ft | 474 kts | 22° |
| 2026-05-06 16:56 | 61.78140 | 14.41452 | 34962 ft | 469 kts | 15° |
| 2026-05-06 16:56 | 61.84256 | 14.46260 | 34955 ft | 468 kts | 15° |
| 2026-05-06 16:57 | 61.90325 | 14.51035 | 34952 ft | 468 kts | 15° |
| 2026-05-06 16:57 | 61.96421 | 14.55877 | 34950 ft | 467 kts | 15° |
| 2026-05-06 16:58 | 62.02504 | 14.60739 | 34949 ft | 467 kts | 15° |
| 2026-05-06 16:58 | 62.08582 | 14.65623 | 34945 ft | 466 kts | 15° |
| 2026-05-06 16:59 | 62.14689 | 14.70550 | 34952 ft | 466 kts | 15° |
| 2026-05-06 16:59 | 62.20761 | 14.75470 | 34956 ft | 466 kts | 16° |
| 2026-05-06 17:00 | 62.26819 | 14.80393 | 34952 ft | 466 kts | 16° |
| 2026-05-06 17:00 | 62.32835 | 14.85303 | 34963 ft | 465 kts | 16° |
| 2026-05-06 17:01 | 62.38883 | 14.90267 | 34964 ft | 465 kts | 16° |
| 2026-05-06 17:01 | 62.44938 | 14.95248 | 34966 ft | 465 kts | 16° |
| 2026-05-06 17:02 | 62.51019 | 15.00268 | 34964 ft | 465 kts | 16° |
| 2026-05-06 17:02 | 62.57019 | 15.05263 | 34962 ft | 465 kts | 16° |
| 2026-05-06 17:03 | 62.63049 | 15.10293 | 34960 ft | 464 kts | 16° |
| 2026-05-06 17:03 | 62.69116 | 15.15365 | 34963 ft | 464 kts | 17° |
| 2026-05-06 17:04 | 62.74969 | 15.21177 | 34950 ft | 468 kts | 26° |
| 2026-05-06 17:04 | 62.80672 | 15.28258 | 34956 ft | 468 kts | 26° |
| 2026-05-06 17:05 | 62.86329 | 15.35307 | 34944 ft | 468 kts | 26° |
| 2026-05-06 17:05 | 62.91947 | 15.42339 | 34943 ft | 468 kts | 26° |
| 2026-05-06 17:06 | 62.97627 | 15.49476 | 34943 ft | 467 kts | 26° |
| 2026-05-06 17:06 | 63.03270 | 15.56588 | 34940 ft | 467 kts | 26° |
| 2026-05-06 17:07 | 63.08873 | 15.63669 | 34937 ft | 467 kts | 26° |
| 2026-05-06 17:07 | 63.14505 | 15.70843 | 34933 ft | 467 kts | 26° |
| 2026-05-06 17:08 | 63.20138 | 15.78049 | 34935 ft | 467 kts | 26° |
| 2026-05-06 17:08 | 63.25762 | 15.85278 | 34937 ft | 467 kts | 26° |
| 2026-05-06 17:09 | 63.31384 | 15.92534 | 34938 ft | 467 kts | 27° |
| 2026-05-06 17:09 | 63.37000 | 15.99813 | 34937 ft | 467 kts | 27° |
| 2026-05-06 17:10 | 63.42598 | 16.07120 | 34928 ft | 466 kts | 27° |
| 2026-05-06 17:10 | 63.48205 | 16.14433 | 34929 ft | 466 kts | 27° |
| 2026-05-06 17:11 | 63.53802 | 16.21780 | 34937 ft | 467 kts | 27° |
| 2026-05-06 17:11 | 63.59402 | 16.29184 | 34935 ft | 467 kts | 27° |
| 2026-05-06 17:12 | 63.64992 | 16.36596 | 34932 ft | 466 kts | 27° |
| 2026-05-06 17:12 | 63.70580 | 16.44024 | 34930 ft | 466 kts | 27° |
| 2026-05-06 17:13 | 63.76153 | 16.51509 | 34932 ft | 466 kts | 27° |
| 2026-05-06 17:13 | 63.81727 | 16.59008 | 34940 ft | 466 kts | 27° |
| 2026-05-06 17:14 | 63.87302 | 16.66527 | 34936 ft | 466 kts | 28° |
| 2026-05-06 17:14 | 63.92872 | 16.74076 | 34937 ft | 466 kts | 28° |
| 2026-05-06 17:15 | 63.98437 | 16.81679 | 34938 ft | 466 kts | 28° |
| 2026-05-06 17:15 | 64.03999 | 16.89299 | 34941 ft | 466 kts | 28° |
| 2026-05-06 17:16 | 64.09551 | 16.96961 | 34943 ft | 466 kts | 28° |
| 2026-05-06 17:16 | 64.15106 | 17.04624 | 34937 ft | 466 kts | 27° |
| 2026-05-06 17:17 | 64.20743 | 17.11910 | 34936 ft | 465 kts | 26° |
| 2026-05-06 17:17 | 64.26424 | 17.19000 | 34938 ft | 465 kts | 26° |
| 2026-05-06 17:18 | 64.32085 | 17.26189 | 34930 ft | 465 kts | 26° |
| 2026-05-06 17:18 | 64.37726 | 17.33498 | 34929 ft | 465 kts | 26° |
| 2026-05-06 17:19 | 64.43358 | 17.40854 | 34925 ft | 465 kts | 27° |
| 2026-05-06 17:19 | 64.48980 | 17.48229 | 34929 ft | 464 kts | 27° |
| 2026-05-06 17:20 | 64.54600 | 17.55621 | 34929 ft | 464 kts | 27° |
| 2026-05-06 17:20 | 64.60214 | 17.63045 | 34934 ft | 464 kts | 27° |
| 2026-05-06 17:21 | 64.65825 | 17.70477 | 34929 ft | 464 kts | 27° |
| 2026-05-06 17:21 | 64.71426 | 17.77925 | 34922 ft | 463 kts | 27° |
| 2026-05-06 17:22 | 64.77027 | 17.85425 | 34920 ft | 463 kts | 27° |
| 2026-05-06 17:22 | 64.82613 | 17.92952 | 34919 ft | 463 kts | 27° |
| 2026-05-06 17:23 | 64.88193 | 18.00509 | 34915 ft | 463 kts | 27° |
| 2026-05-06 17:23 | 64.93769 | 18.08088 | 34910 ft | 463 kts | 27° |
| 2026-05-06 17:24 | 64.99346 | 18.15695 | 34904 ft | 462 kts | 27° |
| 2026-05-06 17:24 | 65.04876 | 18.23295 | 34902 ft | 462 kts | 27° |
| 2026-05-06 17:25 | 65.10472 | 18.31012 | 34898 ft | 462 kts | 27° |
| 2026-05-06 17:25 | 65.16023 | 18.38694 | 34899 ft | 462 kts | 28° |
| 2026-05-06 17:26 | 65.21568 | 18.46418 | 34896 ft | 461 kts | 28° |
| 2026-05-06 17:26 | 65.27098 | 18.54156 | 34898 ft | 461 kts | 28° |
| 2026-05-06 17:27 | 65.32654 | 18.61566 | 34899 ft | 458 kts | 20° |
| 2026-05-06 17:27 | 65.38636 | 18.66968 | 34887 ft | 456 kts | 18° |
| 2026-05-06 17:28 | 65.44589 | 18.72283 | 34879 ft | 456 kts | 18° |
| 2026-05-06 17:28 | 65.50534 | 18.77639 | 34873 ft | 456 kts | 18° |
| 2026-05-06 17:29 | 65.56473 | 18.83027 | 34866 ft | 456 kts | 18° |
| 2026-05-06 17:29 | 65.62412 | 18.88406 | 34862 ft | 456 kts | 18° |
| 2026-05-06 17:30 | 65.67347 | 18.92881 | 34861 ft | 455 kts | 18° |
| 2026-05-06 17:30 | 65.73273 | 18.98296 | 34864 ft | 455 kts | 18° |
| 2026-05-06 17:31 | 65.79199 | 19.03757 | 34876 ft | 455 kts | 18° |
| 2026-05-06 17:31 | 65.82158 | 19.06489 | 34690 ft | 453 kts | 18° |
| 2026-05-06 17:31 | 65.85095 | 19.09203 | 34470 ft | 449 kts | 18° |
| 2026-05-06 17:31 | 65.88007 | 19.11897 | 34253 ft | 447 kts | 18° |
| 2026-05-06 17:32 | 65.90909 | 19.14587 | 34033 ft | 445 kts | 18° |
| 2026-05-06 17:32 | 65.93795 | 19.17271 | 33803 ft | 442 kts | 18° |
| 2026-05-06 17:32 | 65.96661 | 19.19950 | 33535 ft | 440 kts | 18° |
| 2026-05-06 17:32 | 65.99511 | 19.22624 | 33267 ft | 437 kts | 18° |
| 2026-05-06 17:33 | 66.02339 | 19.25285 | 33003 ft | 434 kts | 19° |
| 2026-05-06 17:33 | 66.05151 | 19.27933 | 32726 ft | 431 kts | 19° |
| 2026-05-06 17:33 | 66.07942 | 19.30569 | 32483 ft | 428 kts | 19° |
| 2026-05-06 17:33 | 66.10717 | 19.33201 | 32228 ft | 426 kts | 19° |
| 2026-05-06 17:34 | 66.13473 | 19.35818 | 31967 ft | 423 kts | 19° |
| 2026-05-06 17:34 | 66.16217 | 19.38419 | 31723 ft | 420 kts | 19° |
| 2026-05-06 17:34 | 66.18937 | 19.41005 | 31471 ft | 418 kts | 19° |
| 2026-05-06 17:34 | 66.21637 | 19.43581 | 31223 ft | 415 kts | 19° |
| 2026-05-06 17:35 | 66.24321 | 19.46150 | 30978 ft | 413 kts | 19° |
| 2026-05-06 17:35 | 66.26978 | 19.48702 | 30608 ft | 408 kts | 19° |
| 2026-05-06 17:35 | 66.29619 | 19.51241 | 30146 ft | 405 kts | 19° |
| 2026-05-06 17:36 | 66.34839 | 19.56266 | 29163 ft | 397 kts | 19° |
| 2026-05-06 17:36 | 66.37398 | 19.58739 | 28729 ft | 392 kts | 19° |
| 2026-05-06 17:36 | 66.39920 | 19.61177 | 28296 ft | 387 kts | 20° |
| 2026-05-06 17:36 | 66.42417 | 19.63601 | 27870 ft | 382 kts | 20° |
| 2026-05-06 17:37 | 66.44876 | 19.65996 | 27441 ft | 377 kts | 20° |
| 2026-05-06 17:37 | 66.47305 | 19.68369 | 27018 ft | 373 kts | 20° |
| 2026-05-06 17:37 | 66.49711 | 19.70725 | 26591 ft | 369 kts | 20° |
| 2026-05-06 17:37 | 66.52093 | 19.73058 | 26167 ft | 366 kts | 20° |
| 2026-05-06 17:38 | 66.54452 | 19.75371 | 25725 ft | 363 kts | 21° |
| 2026-05-06 17:38 | 66.56795 | 19.77676 | 25294 ft | 360 kts | 21° |
| 2026-05-06 17:38 | 66.59125 | 19.79978 | 24842 ft | 359 kts | 21° |
| 2026-05-06 17:38 | 66.61442 | 19.82271 | 24392 ft | 357 kts | 21° |
| 2026-05-06 17:39 | 66.63749 | 19.84561 | 23935 ft | 356 kts | 21° |
| 2026-05-06 17:39 | 66.66054 | 19.86851 | 23483 ft | 355 kts | 21° |
| 2026-05-06 17:39 | 66.68352 | 19.89137 | 22967 ft | 354 kts | 21° |
| 2026-05-06 17:39 | 66.70635 | 19.91404 | 22520 ft | 351 kts | 21° |
| 2026-05-06 17:40 | 66.72904 | 19.93653 | 22076 ft | 349 kts | 20° |
| 2026-05-06 17:40 | 66.75229 | 19.95248 | 21671 ft | 345 kts | 8° |
| 2026-05-06 17:40 | 66.77567 | 19.96035 | 21243 ft | 342 kts | 6° |
| 2026-05-06 17:40 | 66.79915 | 19.96799 | 20833 ft | 339 kts | 6° |
| 2026-05-06 17:41 | 66.82243 | 19.97564 | 20423 ft | 336 kts | 6° |
| 2026-05-06 17:41 | 66.84587 | 19.98337 | 20014 ft | 334 kts | 6° |
| 2026-05-06 17:41 | 66.86850 | 19.99081 | 19616 ft | 331 kts | 6° |
| 2026-05-06 17:41 | 66.89158 | 19.99836 | 19212 ft | 329 kts | 6° |
| 2026-05-06 17:42 | 66.91426 | 20.00576 | 18813 ft | 328 kts | 6° |
| 2026-05-06 17:42 | 66.93680 | 20.01314 | 18422 ft | 326 kts | 6° |
| 2026-05-06 17:42 | 66.95894 | 20.02048 | 18001 ft | 323 kts | 5° |
| 2026-05-06 17:42 | 66.98113 | 20.02792 | 17621 ft | 321 kts | 5° |
| 2026-05-06 17:43 | 67.00316 | 20.03533 | 17235 ft | 318 kts | 5° |
| 2026-05-06 17:43 | 67.02507 | 20.04269 | 16861 ft | 316 kts | 5° |
| 2026-05-06 17:43 | 67.04686 | 20.05000 | 16483 ft | 315 kts | 5° |
| 2026-05-06 17:43 | 67.06852 | 20.05724 | 16115 ft | 313 kts | 5° |
| 2026-05-06 17:44 | 67.09009 | 20.06445 | 15746 ft | 312 kts | 5° |
| 2026-05-06 17:44 | 67.11157 | 20.07161 | 15386 ft | 311 kts | 5° |
| 2026-05-06 17:44 | 67.13306 | 20.07883 | 15024 ft | 310 kts | 5° |
| 2026-05-06 17:44 | 67.15436 | 20.08599 | 14662 ft | 309 kts | 5° |